createdAt,value
2018-07-14T00:00:43.759Z,98.39
2018-07-14T00:01:43.785Z,98.68
2018-07-14T00:02:43.814Z,98.77
2018-07-14T00:03:58.490Z,98.86
2018-07-14T00:04:43.856Z,98.39
2018-07-14T00:05:43.881Z,99.44
2018-07-14T00:06:43.903Z,99.06
2018-07-14T00:07:43.668Z,99.15
2018-07-14T00:08:43.952Z,99.63
2018-07-14T00:09:43.975Z,99.63
2018-07-14T00:10:43.741Z,99.63
2018-07-14T00:12:43.788Z,99.73
2018-07-14T00:14:44.094Z,99.35
2018-07-14T00:15:43.860Z,99.54
2018-07-14T00:16:43.882Z,99.15
2018-07-14T00:17:43.909Z,99.63
2018-07-14T00:18:44.191Z,99.54
2018-07-14T00:19:58.874Z,99.99
2018-07-14T00:20:43.978Z,99.83
2018-07-14T00:21:44.261Z,99.97
2018-07-14T00:22:44.283Z,99.99
2018-07-14T00:23:44.051Z,99.99
2018-07-14T00:24:44.075Z,99.99
2018-07-14T00:25:44.359Z,99.99
2018-07-14T00:26:44.380Z,99.99
2018-07-14T00:27:44.403Z,99.99
2018-07-14T00:29:44.193Z,99.99
2018-07-14T00:30:44.475Z,99.99
2018-07-14T00:31:44.499Z,99.99
2018-07-14T00:32:44.523Z,99.99
2018-07-14T00:33:44.546Z,99.99
2018-07-14T00:34:59.233Z,99.99
2018-07-14T00:35:44.596Z,99.97
2018-07-14T00:36:44.361Z,99.99
2018-07-14T00:37:44.385Z,99.99
2018-07-14T00:38:44.667Z,99.99
2018-07-14T00:39:44.692Z,99.99
2018-07-14T00:41:44.740Z,99.99
2018-07-14T00:42:44.764Z,99.99
2018-07-14T00:43:44.786Z,99.99
2018-07-14T00:44:44.811Z,99.73
2018-07-14T00:45:44.832Z,99.73
2018-07-14T00:46:44.859Z,99.44
2018-07-14T00:47:44.886Z,99.44
2018-07-14T00:48:44.954Z,99.54
2018-07-14T00:49:44.681Z,99.63
2018-07-14T00:50:44.955Z,99.63
2018-07-14T00:51:44.978Z,99.54
2018-07-14T00:52:45.000Z,99.73
2018-07-14T00:53:45.023Z,99.63
2018-07-14T00:54:45.055Z,99.54
2018-07-14T00:55:45.072Z,99.44
2018-07-14T00:56:45.095Z,99.73
2018-07-14T00:57:45.119Z,99.99
2018-07-14T00:58:45.144Z,99.73
2018-07-14T00:59:45.170Z,99.99
2018-07-14T01:01:45.217Z,99.83
2018-07-14T01:03:45.265Z,99.92
2018-07-14T01:04:45.288Z,99.83
2018-07-14T01:05:45.054Z,99.92
2018-07-14T01:06:59.998Z,99.99
2018-07-14T01:07:45.360Z,99.99
2018-07-14T01:08:45.382Z,99.92
2018-07-14T01:09:45.406Z,99.99
2018-07-14T01:10:45.429Z,99.99
2018-07-14T01:11:45.453Z,99.99
2018-07-14T01:13:45.506Z,99.99
2018-07-14T01:14:45.528Z,99.99
2018-07-14T01:15:45.553Z,99.99
2018-07-14T01:16:45.315Z,99.99
2018-07-14T01:17:45.684Z,99.99
2018-07-14T01:18:45.623Z,99.99
2018-07-14T01:19:45.645Z,99.99
2018-07-14T01:20:45.672Z,99.99
2018-07-14T01:21:45.690Z,99.99
2018-07-14T01:23:00.378Z,99.99
2018-07-14T01:23:45.745Z,99.99
2018-07-14T01:24:45.767Z,99.99
2018-07-14T01:25:45.790Z,99.99
2018-07-14T01:26:45.810Z,99.99
2018-07-14T01:27:45.835Z,99.99
2018-07-14T01:29:45.626Z,99.99
2018-07-14T01:30:45.906Z,99.99
2018-07-14T01:31:45.928Z,99.99
2018-07-14T01:33:45.978Z,99.99
2018-07-14T01:34:46.003Z,99.99
2018-07-14T01:35:46.027Z,99.99
2018-07-14T01:36:45.791Z,99.99
2018-07-14T01:37:45.815Z,99.99
2018-07-14T01:39:00.767Z,99.99
2018-07-14T01:39:45.863Z,99.99
2018-07-14T01:40:46.273Z,99.99
2018-07-14T01:41:46.170Z,99.99
2018-07-14T01:42:46.192Z,99.99
2018-07-14T01:43:46.222Z,99.99
2018-07-14T01:45:46.264Z,99.99
2018-07-14T01:46:46.286Z,99.99
2018-07-14T01:47:46.312Z,99.99
2018-07-14T01:48:46.336Z,99.99
2018-07-14T01:49:46.361Z,99.99
2018-07-14T01:50:46.383Z,99.99
2018-07-14T01:51:46.407Z,99.99
2018-07-14T01:52:46.430Z,99.99
2018-07-14T01:53:46.451Z,99.99
2018-07-14T01:55:01.140Z,99.99
2018-07-14T01:55:46.502Z,99.99
2018-07-14T01:56:46.526Z,99.99
2018-07-14T01:57:46.548Z,99.99
2018-07-14T01:58:46.576Z,99.99
2018-07-14T01:59:46.596Z,99.99
2018-07-14T02:01:46.647Z,99.99
2018-07-14T02:02:46.667Z,99.99
2018-07-14T02:03:46.695Z,99.99
2018-07-14T02:04:46.457Z,99.99
2018-07-14T02:05:46.740Z,99.99
2018-07-14T02:06:46.762Z,99.99
2018-07-14T02:07:46.784Z,99.99
2018-07-14T02:08:46.808Z,99.99
2018-07-14T02:10:01.499Z,99.99
2018-07-14T02:10:46.857Z,99.99
2018-07-14T02:11:46.886Z,99.99
2018-07-14T02:12:46.907Z,99.99
2018-07-14T02:13:46.932Z,99.99
2018-07-14T02:14:46.953Z,99.99
2018-07-14T02:15:46.979Z,99.99
2018-07-14T02:16:46.997Z,99.99
2018-07-14T02:17:47.022Z,99.99
2018-07-14T02:18:46.790Z,99.99
2018-07-14T02:19:47.070Z,99.99
2018-07-14T02:20:46.837Z,99.99
2018-07-14T02:21:46.861Z,99.99
2018-07-14T02:22:47.141Z,99.99
2018-07-14T02:23:47.169Z,99.99
2018-07-14T02:24:47.193Z,99.99
2018-07-14T02:25:47.213Z,99.99
2018-07-14T02:26:47.237Z,99.99
2018-07-14T02:27:47.261Z,99.99
2018-07-14T02:28:47.282Z,99.99
2018-07-14T02:29:47.314Z,99.99
2018-07-14T02:30:47.075Z,99.99
2018-07-14T02:31:47.361Z,99.99
2018-07-14T02:32:47.121Z,99.99
2018-07-14T02:33:47.402Z,99.99
2018-07-14T02:34:47.431Z,99.99
2018-07-14T02:36:47.483Z,99.99
2018-07-14T02:37:47.506Z,99.99
2018-07-14T02:38:47.521Z,99.99
2018-07-14T02:39:47.549Z,99.99
2018-07-14T02:40:47.566Z,99.99
2018-07-14T02:42:02.251Z,99.99
2018-07-14T02:42:47.619Z,99.99
2018-07-14T02:43:47.638Z,99.99
2018-07-14T02:44:47.668Z,99.99
2018-07-14T02:45:47.693Z,99.99
2018-07-14T02:46:47.709Z,99.99
2018-07-14T02:47:47.735Z,99.99
2018-07-14T02:48:47.755Z,99.99
2018-07-14T02:49:47.777Z,99.99
2018-07-14T02:50:47.810Z,99.99
2018-07-14T02:51:47.826Z,99.99
2018-07-14T02:52:47.855Z,99.99
2018-07-14T02:53:47.872Z,99.99
2018-07-14T02:54:47.895Z,99.99
2018-07-14T02:55:47.936Z,99.99
2018-07-14T02:56:48.007Z,99.99
2018-07-14T02:58:02.628Z,99.99
2018-07-14T02:58:47.733Z,99.99
2018-07-14T02:59:47.784Z,99.99
2018-07-14T03:00:48.045Z,99.99
2018-07-14T03:01:48.061Z,99.99
2018-07-14T03:03:48.110Z,99.99
2018-07-14T03:05:47.998Z,99.99
2018-07-14T03:06:48.177Z,99.99
2018-07-14T03:07:48.206Z,99.99
2018-07-14T03:08:48.226Z,99.99
2018-07-14T03:09:48.249Z,99.99
2018-07-14T03:10:48.271Z,99.99
2018-07-14T03:11:48.295Z,99.99
2018-07-14T03:12:48.090Z,99.99
2018-07-14T03:14:03.004Z,99.99
2018-07-14T03:14:48.369Z,99.99
2018-07-14T03:15:48.390Z,99.99
2018-07-14T03:16:48.417Z,99.99
2018-07-14T03:17:48.444Z,99.99
2018-07-14T03:18:48.467Z,99.99
2018-07-14T03:19:48.482Z,99.99
2018-07-14T03:20:48.512Z,99.99
2018-07-14T03:21:48.530Z,99.99
2018-07-14T03:23:48.579Z,99.99
2018-07-14T03:24:48.602Z,99.99
2018-07-14T03:25:48.628Z,99.99
2018-07-14T03:26:48.651Z,99.99
2018-07-14T03:27:48.671Z,99.99
2018-07-14T03:28:48.691Z,99.99
2018-07-14T03:30:03.380Z,99.99
2018-07-14T03:30:48.740Z,99.99
2018-07-14T03:31:48.765Z,99.99
2018-07-14T03:32:48.792Z,99.99
2018-07-14T03:33:48.554Z,99.99
2018-07-14T03:34:48.836Z,99.99
2018-07-14T03:35:48.602Z,99.99
2018-07-14T03:36:49.047Z,99.99
2018-07-14T03:40:48.975Z,99.99
2018-07-14T03:41:49.002Z,99.99
2018-07-14T03:42:49.025Z,99.99
2018-07-14T03:43:49.047Z,99.99
2018-07-14T03:45:03.732Z,99.99
2018-07-14T03:45:49.094Z,99.99
2018-07-14T03:46:48.859Z,99.99
2018-07-14T03:48:49.163Z,99.99
2018-07-14T03:49:49.188Z,99.99
2018-07-14T03:50:49.211Z,99.99
2018-07-14T03:51:49.234Z,99.99
2018-07-14T03:52:49.261Z,99.99
2018-07-14T03:53:49.282Z,99.99
2018-07-14T03:55:49.327Z,99.99
2018-07-14T03:56:49.103Z,99.99
2018-07-14T03:57:49.374Z,99.99
2018-07-14T03:58:49.398Z,99.99
2018-07-14T03:59:49.420Z,99.99
2018-07-14T04:00:49.446Z,99.99
2018-07-14T04:01:49.472Z,99.99
2018-07-14T04:02:49.492Z,99.99
2018-07-14T04:03:49.515Z,99.99
2018-07-14T04:04:49.559Z,99.99
2018-07-14T04:05:49.564Z,99.99
2018-07-14T04:06:49.587Z,99.99
2018-07-14T04:07:49.608Z,99.99
2018-07-14T04:08:49.633Z,99.99
2018-07-14T04:09:49.658Z,99.99
2018-07-14T04:10:49.682Z,99.99
2018-07-14T04:11:49.711Z,99.99
2018-07-14T04:13:49.751Z,99.99
2018-07-14T04:14:49.823Z,99.99
2018-07-14T04:15:49.797Z,99.99
2018-07-14T04:17:04.482Z,99.99
2018-07-14T04:17:49.844Z,99.99
2018-07-14T04:18:49.869Z,99.99
2018-07-14T04:19:49.892Z,99.99
2018-07-14T04:20:49.911Z,99.99
2018-07-14T04:21:49.937Z,99.99
2018-07-14T04:22:49.962Z,99.99
2018-07-14T04:23:49.990Z,99.99
2018-07-14T04:24:50.012Z,99.99
2018-07-14T04:25:50.030Z,99.99
2018-07-14T04:26:50.056Z,99.99
2018-07-14T04:27:50.079Z,99.99
2018-07-14T04:28:50.102Z,99.99
2018-07-14T04:29:50.124Z,99.99
2018-07-14T04:30:50.156Z,99.99
2018-07-14T04:31:50.285Z,99.99
2018-07-14T04:33:04.867Z,99.99
2018-07-14T04:33:50.219Z,99.99
2018-07-14T04:34:50.243Z,99.99
2018-07-14T04:35:50.271Z,99.99
2018-07-14T04:36:50.289Z,99.99
2018-07-14T04:37:50.316Z,99.99
2018-07-14T04:38:50.337Z,99.99
2018-07-14T04:39:50.104Z,99.99
2018-07-14T04:41:50.406Z,99.99
2018-07-14T04:42:50.432Z,99.99
2018-07-14T04:43:50.456Z,99.99
2018-07-14T04:44:50.485Z,99.99
2018-07-14T04:45:50.245Z,99.99
2018-07-14T04:46:50.269Z,99.99
2018-07-14T04:47:50.549Z,99.99
2018-07-14T04:49:05.236Z,99.99
2018-07-14T04:49:50.603Z,99.99
2018-07-14T04:50:50.365Z,99.99
2018-07-14T04:51:50.648Z,99.99
2018-07-14T04:52:50.672Z,99.99
2018-07-14T04:53:50.434Z,98.58
2018-07-14T04:54:50.716Z,98.19
2018-07-14T04:55:50.741Z,97.71
2018-07-14T04:56:50.771Z,96.61
2018-07-14T04:57:50.792Z,95.55
2018-07-14T04:58:50.813Z,94.25
2018-07-14T04:59:50.838Z,90.73
2018-07-14T05:00:50.604Z,89.43
2018-07-14T05:01:50.628Z,86.25
2018-07-14T05:02:50.912Z,84.27
2018-07-14T05:03:50.934Z,82.57
2018-07-14T05:05:05.623Z,80.87
2018-07-14T05:05:50.989Z,79.37
2018-07-14T05:06:51.012Z,77.42
2018-07-14T05:07:51.039Z,77.22
2018-07-14T05:09:51.090Z,74.59
2018-07-14T05:10:51.114Z,75.33
2018-07-14T05:11:51.140Z,75.74
2018-07-14T05:12:51.184Z,74.42
2018-07-14T05:13:50.938Z,74.27
2018-07-14T05:15:51.257Z,72.66
2018-07-14T05:16:51.279Z,72.66
2018-07-14T05:17:51.307Z,71.14
2018-07-14T05:18:51.334Z,69.82
2018-07-14T05:20:06.026Z,70.4
2018-07-14T05:20:51.392Z,69.53
2018-07-14T05:21:51.160Z,68.95
2018-07-14T05:22:51.452Z,68.4
2018-07-14T05:23:51.479Z,68.4
2018-07-14T05:24:51.501Z,70.4
2018-07-14T05:25:51.533Z,71.78
2018-07-14T05:26:51.560Z,72.08
2018-07-14T05:27:51.589Z,72.62
2018-07-14T05:28:51.621Z,73.39
2018-07-14T05:29:51.645Z,73.94
2018-07-14T05:30:51.673Z,74.23
2018-07-14T05:31:51.705Z,74.81
2018-07-14T05:32:51.728Z,74.19
2018-07-14T05:33:51.763Z,73.84
2018-07-14T05:34:51.528Z,74.52
2018-07-14T05:35:51.814Z,74.23
2018-07-14T05:36:51.841Z,73.36
2018-07-14T05:37:51.869Z,72.68
2018-07-14T05:38:51.896Z,72.52
2018-07-14T05:39:51.665Z,71.78
2018-07-14T05:40:51.953Z,72.04
2018-07-14T05:41:51.983Z,72.08
2018-07-14T05:42:52.021Z,69.79
2018-07-14T05:43:52.107Z,68.12
2018-07-14T05:44:52.068Z,67.08
2018-07-14T05:45:52.094Z,67.02
2018-07-14T05:46:52.122Z,68.21
2018-07-14T05:47:52.148Z,66.66
2018-07-14T05:48:52.180Z,64.56
2018-07-14T05:49:52.209Z,64.59
2018-07-14T05:50:51.984Z,64.4
2018-07-14T05:52:06.941Z,61.65
2018-07-14T05:52:52.296Z,61.68
2018-07-14T05:53:52.328Z,61.29
2018-07-14T05:54:52.366Z,60.25
2018-07-14T05:55:52.399Z,59.89
2018-07-14T05:56:52.421Z,59.01
2018-07-14T05:57:52.193Z,58.43
2018-07-14T05:58:52.482Z,57.22
2018-07-14T05:59:52.513Z,57.03
2018-07-14T06:01:52.581Z,55.82
2018-07-14T06:02:52.349Z,56.01
2018-07-14T06:03:52.638Z,57.39
2018-07-14T06:04:52.673Z,58.17
2018-07-14T06:05:52.702Z,57.39
2018-07-14T06:06:52.732Z,57.75
2018-07-14T06:08:07.430Z,56.81
2018-07-14T06:08:52.799Z,55.76
2018-07-14T06:09:52.573Z,57
2018-07-14T06:10:52.607Z,55.5
2018-07-14T06:11:52.905Z,53.5
2018-07-14T06:13:52.962Z,51.7
2018-07-14T06:14:52.996Z,51.14
2018-07-14T06:15:53.028Z,51.82
2018-07-14T06:16:53.071Z,51.07
2018-07-14T06:17:53.097Z,50.49
2018-07-14T06:18:53.132Z,50.39
2018-07-14T06:19:53.161Z,50.98
2018-07-14T06:20:53.198Z,50.56
2018-07-14T06:21:52.972Z,50.39
2018-07-14T06:22:53.266Z,50.78
2018-07-14T06:24:07.963Z,49.49
2018-07-14T06:24:53.331Z,49.8
2018-07-14T06:25:53.110Z,50.32
2018-07-14T06:26:53.405Z,48.85
2018-07-14T06:27:53.434Z,49.07
2018-07-14T06:28:53.469Z,50.22
2018-07-14T06:29:53.502Z,48.75
2018-07-14T06:30:53.539Z,48.21
2018-07-14T06:31:53.642Z,47.5
2018-07-14T06:32:53.605Z,47.63
2018-07-14T06:34:53.676Z,48.63
2018-07-14T06:35:53.454Z,50.65
2018-07-14T06:36:53.847Z,49.98
2018-07-14T06:37:53.780Z,50.53
2018-07-14T06:38:53.819Z,52.97
2018-07-14T06:40:08.514Z,53.36
2018-07-14T06:40:53.889Z,54.79
2018-07-14T06:41:53.661Z,56.29
2018-07-14T06:42:53.952Z,55.93
2018-07-14T06:43:53.986Z,57.14
2018-07-14T06:44:53.862Z,56.85
2018-07-14T06:45:54.055Z,55.54
2018-07-14T06:46:54.153Z,54.89
2018-07-14T06:48:54.155Z,53.77
2018-07-14T06:49:54.191Z,52.66
2018-07-14T06:51:54.258Z,50.63
2018-07-14T06:52:54.294Z,49.19
2018-07-14T06:53:54.326Z,48.26
2018-07-14T06:55:09.026Z,48.36
2018-07-14T06:55:54.135Z,48.94
2018-07-14T06:56:54.428Z,49.41
2018-07-14T06:57:54.459Z,47.8
2018-07-14T06:58:54.494Z,47.72
2018-07-14T06:59:54.531Z,48.77
2018-07-14T07:00:54.563Z,47.92
2018-07-14T07:01:54.600Z,47.82
2018-07-14T07:02:54.631Z,46.5
2018-07-14T07:04:54.710Z,47.04
2018-07-14T07:07:54.806Z,48.16
2018-07-14T07:08:54.846Z,48.54
2018-07-14T07:09:54.875Z,47.7
2018-07-14T07:10:54.912Z,47.53
2018-07-14T07:11:54.946Z,47.72
2018-07-14T07:12:54.725Z,46.57
2018-07-14T07:13:55.212Z,47.16
2018-07-14T07:14:55.052Z,47.11
2018-07-14T07:15:55.087Z,46.08
2018-07-14T07:16:55.123Z,45.52
2018-07-14T07:17:55.156Z,46.67
2018-07-14T07:18:55.193Z,45.42
2018-07-14T07:19:55.228Z,45.54
2018-07-14T07:21:55.302Z,47.11
2018-07-14T07:22:55.337Z,47.04
2018-07-14T07:23:55.375Z,45.98
2018-07-14T07:24:55.408Z,45.44
2018-07-14T07:25:55.444Z,46.86
2018-07-14T07:27:10.144Z,46.16
2018-07-14T07:27:55.516Z,46.23
2018-07-14T07:28:55.940Z,45.57
2018-07-14T07:29:55.589Z,45.69
2018-07-14T07:30:55.623Z,44.56
2018-07-14T07:31:55.660Z,43.12
2018-07-14T07:32:55.436Z,43.7
2018-07-14T07:33:56.061Z,44.48
2018-07-14T07:34:55.764Z,44.95
2018-07-14T07:35:55.803Z,44.56
2018-07-14T07:36:55.854Z,44.56
2018-07-14T07:37:55.881Z,44.07
2018-07-14T07:38:55.916Z,44.37
2018-07-14T07:39:55.945Z,44.76
2018-07-14T07:40:55.981Z,43.98
2018-07-14T07:41:56.021Z,44.38
2018-07-14T07:43:10.718Z,44.31
2018-07-14T07:43:56.091Z,42.72
2018-07-14T07:44:56.129Z,44.27
2018-07-14T07:45:56.166Z,43.04
2018-07-14T07:46:55.941Z,44.12
2018-07-14T07:47:56.238Z,43.31
2018-07-14T07:48:56.271Z,42.55
2018-07-14T07:49:56.304Z,42.84
2018-07-14T07:50:56.346Z,43.13
2018-07-14T07:51:56.377Z,43.43
2018-07-14T07:52:56.413Z,43.88
2018-07-14T07:53:56.449Z,43.98
2018-07-14T07:54:56.488Z,43.6
2018-07-14T07:55:56.263Z,42.91
2018-07-14T07:56:56.558Z,43.21
2018-07-14T07:57:56.595Z,43.13
2018-07-14T07:59:11.295Z,43.9
2018-07-14T07:59:56.410Z,43.48
2018-07-14T08:00:56.700Z,46.18
2018-07-14T08:01:56.483Z,47.09
2018-07-14T08:02:56.772Z,47.11
2018-07-14T08:03:56.810Z,46.14
2018-07-14T08:04:56.851Z,48.46
2018-07-14T08:05:56.881Z,47.11
2018-07-14T08:07:56.951Z,48.26
2018-07-14T08:08:57.046Z,46.33
2018-07-14T08:09:57.025Z,47.02
2018-07-14T08:10:57.060Z,47.28
2018-07-14T08:11:57.098Z,47.09
2018-07-14T08:12:57.137Z,48.12
2018-07-14T08:13:56.909Z,50.75
2018-07-14T08:15:11.868Z,53.91
2018-07-14T08:15:57.297Z,54.28
2018-07-14T08:16:57.275Z,53.59
2018-07-14T08:17:57.309Z,52.38
2018-07-14T08:19:57.380Z,55.05
2018-07-14T08:20:57.416Z,54.74
2018-07-14T08:21:57.447Z,53.62
2018-07-14T08:22:57.902Z,54.03
2018-07-14T08:23:57.521Z,55.35
2018-07-14T08:24:57.559Z,54.47
2018-07-14T08:25:57.591Z,54.6
2018-07-14T08:27:57.664Z,53.91
2018-07-14T08:28:57.438Z,55.54
2018-07-14T08:30:12.395Z,54.93
2018-07-14T08:30:57.766Z,52.77
2018-07-14T08:31:57.799Z,52.44
2018-07-14T08:32:57.848Z,50.73
2018-07-14T08:33:57.874Z,50.73
2018-07-14T08:34:57.904Z,51.26
2018-07-14T08:35:57.948Z,50.9
2018-07-14T08:36:57.715Z,51.46
2018-07-14T08:37:58.040Z,51.43
2018-07-14T08:39:58.076Z,51.14
2018-07-14T08:40:58.113Z,50.29
2018-07-14T08:41:58.143Z,48.97
2018-07-14T08:42:58.183Z,53.16
2018-07-14T08:43:58.213Z,50.92
2018-07-14T08:44:58.247Z,50.36
2018-07-14T08:45:58.282Z,51.26
2018-07-14T08:46:58.317Z,49.63
2018-07-14T08:47:58.348Z,48.85
2018-07-14T08:48:58.388Z,48.36
2018-07-14T08:49:58.427Z,48.95
2018-07-14T08:50:58.452Z,49.05
2018-07-14T08:51:58.488Z,49.73
2018-07-14T08:52:58.521Z,49.15
2018-07-14T08:54:58.587Z,50.95
2018-07-14T08:55:58.623Z,50.75
2018-07-14T08:56:58.659Z,51.21
2018-07-14T08:57:58.692Z,51.31
2018-07-14T08:58:58.725Z,49.41
2018-07-14T08:59:58.760Z,48.58
2018-07-14T09:00:58.533Z,48.29
2018-07-14T09:02:13.489Z,48.95
2018-07-14T09:02:58.861Z,49.61
2018-07-14T09:03:58.898Z,49.61
2018-07-14T09:04:58.931Z,50.58
2018-07-14T09:05:58.961Z,50.78
2018-07-14T09:06:58.999Z,50.56
2018-07-14T09:09:59.196Z,47.88
2018-07-14T09:10:59.132Z,50.99
2018-07-14T09:11:59.161Z,46.83
2018-07-14T09:12:59.196Z,46.85
2018-07-14T09:13:59.230Z,46.83
2018-07-14T09:14:59.264Z,47.49
2018-07-14T09:15:59.298Z,48.95
2018-07-14T09:16:59.329Z,49.68
2018-07-14T09:18:14.029Z,49.39
2018-07-14T09:18:59.396Z,47.9
2018-07-14T09:19:59.429Z,47.97
2018-07-14T09:20:59.478Z,49.32
2018-07-14T09:21:59.500Z,51.02
2018-07-14T09:22:59.534Z,51.02
2018-07-14T09:23:59.568Z,51.73
2018-07-14T09:24:59.601Z,51.02
2018-07-14T09:25:59.680Z,51.9
2018-07-14T09:28:59.734Z,49.49
2018-07-14T09:29:59.767Z,48.34
2018-07-14T09:30:59.796Z,49.41
2018-07-14T09:31:59.829Z,51.29
2018-07-14T09:32:59.862Z,52.53
2018-07-14T09:34:14.562Z,51.77
2018-07-14T09:34:59.927Z,50.85
2018-07-14T09:35:59.968Z,49.71
2018-07-14T09:36:59.998Z,50.48
2018-07-14T09:37:59.790Z,49.24
2018-07-14T09:39:00.059Z,50.68
2018-07-14T09:40:00.090Z,49.8
2018-07-14T09:41:00.124Z,51.39
2018-07-14T09:41:59.900Z,48.51
2018-07-14T09:43:00.189Z,48.88
2018-07-14T09:44:00.301Z,48.78
2018-07-14T09:45:00.255Z,49.07
2018-07-14T09:46:00.287Z,48.27
2018-07-14T09:47:00.063Z,49.12
2018-07-14T09:48:00.352Z,49.32
2018-07-14T09:49:00.384Z,49.39
2018-07-14T09:50:15.080Z,48.75
2018-07-14T09:51:00.449Z,50.78
2018-07-14T09:52:00.487Z,49.22
2018-07-14T09:53:00.514Z,49.78
2018-07-14T09:54:00.545Z,50.99
2018-07-14T09:55:00.578Z,50.8
2018-07-14T09:56:00.612Z,50.82
2018-07-14T09:57:00.643Z,50.63
2018-07-14T09:58:00.726Z,50.34
2018-07-14T09:59:00.760Z,50.41
2018-07-14T10:01:00.769Z,48.93
2018-07-14T10:02:00.801Z,50.07
2018-07-14T10:03:00.936Z,49.1
2018-07-14T10:04:00.867Z,49.41
2018-07-14T10:05:15.565Z,47.56
2018-07-14T10:06:00.739Z,48.34
2018-07-14T10:07:00.965Z,49.17
2018-07-14T10:08:00.996Z,49.83
2018-07-14T10:09:01.023Z,50.38
2018-07-14T10:10:01.181Z,49.24
2018-07-14T10:11:00.829Z,48.78
2018-07-14T10:12:01.127Z,50.53
2018-07-14T10:13:01.178Z,50.41
2018-07-14T10:14:01.182Z,49.07
2018-07-14T10:15:01.426Z,49.29
2018-07-14T10:16:01.245Z,49.49
2018-07-14T10:17:01.279Z,47.92
2018-07-14T10:18:01.308Z,49.29
2018-07-14T10:19:01.339Z,49.73
2018-07-14T10:20:01.141Z,49.44
2018-07-14T10:21:01.401Z,51.19
2018-07-14T10:22:01.430Z,50.63
2018-07-14T10:23:01.468Z,50.36
2018-07-14T10:24:01.497Z,49.12
2018-07-14T10:25:01.712Z,48.93
2018-07-14T10:26:01.444Z,50.09
2018-07-14T10:27:01.330Z,49.85
2018-07-14T10:28:01.360Z,50.04
2018-07-14T10:29:01.758Z,50.43
2018-07-14T10:30:01.680Z,51.34
2018-07-14T10:31:01.710Z,50.85
2018-07-14T10:32:01.484Z,50.65
2018-07-14T10:33:01.780Z,50.26
2018-07-14T10:34:02.040Z,50.21
2018-07-14T10:35:01.576Z,50.7
2018-07-14T10:36:01.866Z,50.73
2018-07-14T10:37:16.558Z,54.15
2018-07-14T10:38:01.924Z,55.36
2018-07-14T10:39:01.961Z,54.8
2018-07-14T10:40:01.986Z,55.73
2018-07-14T10:41:02.014Z,56.3
2018-07-14T10:42:02.111Z,55.6
2018-07-14T10:43:02.076Z,56.96
2018-07-14T10:44:02.114Z,56.93
2018-07-14T10:45:01.880Z,57.42
2018-07-14T10:46:02.171Z,58.65
2018-07-14T10:48:02.227Z,59.61
2018-07-14T10:49:02.256Z,60.49
2018-07-14T10:50:02.292Z,59.52
2018-07-14T10:51:02.315Z,59.42
2018-07-14T10:52:02.350Z,59.94
2018-07-14T10:53:17.044Z,58.87
2018-07-14T10:54:02.415Z,58.48
2018-07-14T10:56:02.467Z,59.94
2018-07-14T10:57:02.501Z,60.58
2018-07-14T10:58:02.611Z,58.97
2018-07-14T10:59:02.562Z,59.06
2018-07-14T11:00:02.589Z,57.15
2018-07-14T11:01:02.611Z,56.93
2018-07-14T11:03:02.673Z,58.72
2018-07-14T11:05:02.781Z,61.01
2018-07-14T11:06:02.760Z,59.49
2018-07-14T11:07:02.790Z,59.84
2018-07-14T11:08:02.820Z,60.17
2018-07-14T11:09:17.510Z,60.27
2018-07-14T11:10:02.874Z,60.75
2018-07-14T11:11:02.904Z,60.07
2018-07-14T11:13:02.962Z,60.17
2018-07-14T11:14:02.992Z,60.91
2018-07-14T11:15:03.021Z,61.21
2018-07-14T11:16:02.792Z,61.18
2018-07-14T11:17:03.080Z,60.72
2018-07-14T11:18:03.108Z,62.82
2018-07-14T11:20:03.165Z,61.01
2018-07-14T11:21:03.191Z,62.27
2018-07-14T11:22:03.221Z,60.72
2018-07-14T11:23:03.249Z,60.36
2018-07-14T11:24:03.279Z,61.33
2018-07-14T11:25:17.968Z,59.97
2018-07-14T11:26:03.332Z,60.85
2018-07-14T11:27:03.365Z,59.61
2018-07-14T11:28:03.390Z,60.68
2018-07-14T11:29:03.421Z,60.49
2018-07-14T11:30:03.447Z,61.52
2018-07-14T11:32:03.506Z,62.33
2018-07-14T11:33:03.273Z,60.61
2018-07-14T11:34:03.562Z,60.61
2018-07-14T11:35:03.590Z,58.61
2018-07-14T11:36:03.616Z,58.9
2018-07-14T11:37:03.647Z,59.64
2018-07-14T11:38:03.675Z,58.58
2018-07-14T11:39:03.701Z,57.9
2018-07-14T11:40:18.395Z,59.39
2018-07-14T11:41:03.758Z,59.3
2018-07-14T11:42:03.855Z,57.84
2018-07-14T11:43:03.559Z,60.3
2018-07-14T11:44:03.586Z,60.1
2018-07-14T11:45:03.915Z,60.52
2018-07-14T11:46:03.639Z,59.64
2018-07-14T11:47:03.932Z,60.45
2018-07-14T11:48:03.697Z,59
2018-07-14T11:51:04.039Z,59.84
2018-07-14T11:52:03.811Z,57.9
2018-07-14T11:53:04.099Z,58
2018-07-14T11:54:03.863Z,58.29
2018-07-14T11:55:03.891Z,58.87
2018-07-14T11:56:03.920Z,58.77
2018-07-14T11:57:04.211Z,59.36
2018-07-14T11:58:04.235Z,60.52
2018-07-14T11:59:04.004Z,59.19
2018-07-14T12:00:04.031Z,58.41
2018-07-14T12:01:04.323Z,57.06
2018-07-14T12:02:04.108Z,57.34
2018-07-14T12:03:04.377Z,57.8
2018-07-14T12:04:04.145Z,59.16
2018-07-14T12:05:04.171Z,59.91
2018-07-14T12:06:04.461Z,59.42
2018-07-14T12:07:04.226Z,59.94
2018-07-14T12:08:04.509Z,60.71
2018-07-14T12:09:04.542Z,60.91
2018-07-14T12:10:04.574Z,59.74
2018-07-14T12:11:04.598Z,60.91
2018-07-14T12:12:19.287Z,62.68
2018-07-14T12:13:04.654Z,61.07
2018-07-14T12:14:04.422Z,57.67
2018-07-14T12:15:04.449Z,59.12
2018-07-14T12:16:04.478Z,60
2018-07-14T12:17:04.505Z,59.61
2018-07-14T12:20:04.849Z,58.54
2018-07-14T12:21:04.876Z,57.96
2018-07-14T12:22:04.741Z,58.44
2018-07-14T12:23:04.944Z,56.7
2018-07-14T12:24:04.957Z,58.25
2018-07-14T12:25:04.737Z,57.73
2018-07-14T12:26:05.014Z,59.36
2018-07-14T12:27:05.043Z,60.32
2018-07-14T12:28:19.731Z,59.19
2018-07-14T12:29:05.097Z,57.83
2018-07-14T12:30:04.873Z,59.16
2018-07-14T12:31:05.154Z,59.64
2018-07-14T12:32:05.183Z,59.06
2018-07-14T12:33:05.207Z,60.55
2018-07-14T12:34:04.978Z,60.65
2018-07-14T12:35:05.263Z,61.36
2018-07-14T12:36:05.292Z,58.84
2018-07-14T12:37:05.320Z,59.42
2018-07-14T12:38:05.351Z,60.1
2018-07-14T12:39:05.375Z,59.71
2018-07-14T12:40:05.400Z,59.33
2018-07-14T12:41:05.429Z,60.88
2018-07-14T12:42:05.200Z,59.52
2018-07-14T12:43:05.487Z,61.46
2018-07-14T12:44:20.175Z,59.55
2018-07-14T12:45:05.282Z,60.42
2018-07-14T12:46:05.311Z,59.94
2018-07-14T12:47:05.596Z,60.3
2018-07-14T12:49:05.653Z,60.39
2018-07-14T12:50:05.678Z,60.78
2018-07-14T12:51:05.706Z,62.4
2018-07-14T12:52:05.736Z,60.65
2018-07-14T12:53:05.767Z,61.62
2018-07-14T12:54:05.792Z,60.65
2018-07-14T12:56:05.887Z,62.49
2018-07-14T12:57:05.873Z,61.33
2018-07-14T12:58:05.901Z,60.36
2018-07-14T12:59:05.926Z,60.39
2018-07-14T13:00:20.617Z,61.04
2018-07-14T13:01:05.723Z,60.85
2018-07-14T13:02:06.011Z,61.43
2018-07-14T13:03:06.036Z,62.46
2018-07-14T13:04:05.807Z,60.85
2018-07-14T13:05:06.097Z,60.07
2018-07-14T13:06:06.117Z,61.14
2018-07-14T13:07:06.145Z,61.59
2018-07-14T13:08:06.177Z,61.98
2018-07-14T13:09:06.202Z,61.88
2018-07-14T13:10:05.969Z,61.11
2018-07-14T13:11:06.300Z,60.46
2018-07-14T13:12:06.282Z,62.3
2018-07-14T13:13:06.416Z,61.43
2018-07-14T13:14:06.343Z,60.39
2018-07-14T13:15:21.028Z,61.36
2018-07-14T13:16:06.136Z,60.88
2018-07-14T13:17:06.491Z,60.49
2018-07-14T13:18:06.448Z,61.14
2018-07-14T13:19:06.487Z,61.33
2018-07-14T13:20:06.501Z,61.24
2018-07-14T13:21:06.527Z,62.27
2018-07-14T13:22:06.303Z,61.98
2018-07-14T13:23:06.583Z,61.33
2018-07-14T13:24:06.612Z,61.91
2018-07-14T13:25:06.639Z,61.33
2018-07-14T13:27:06.694Z,61.14
2018-07-14T13:28:06.720Z,61.36
2018-07-14T13:29:06.746Z,62.46
2018-07-14T13:30:06.995Z,62.85
2018-07-14T13:31:06.810Z,62.75
2018-07-14T13:32:06.828Z,63.79
2018-07-14T13:33:06.862Z,63.92
2018-07-14T13:34:06.888Z,63.14
2018-07-14T13:35:06.911Z,62.56
2018-07-14T13:36:06.680Z,62.07
2018-07-14T13:37:06.965Z,63.17
2018-07-14T13:38:06.992Z,61.98
2018-07-14T13:39:07.224Z,63.14
2018-07-14T13:40:07.044Z,62.95
2018-07-14T13:41:07.107Z,62.56
2018-07-14T13:42:07.101Z,62.27
2018-07-14T13:43:07.126Z,62.37
2018-07-14T13:44:07.154Z,62.46
2018-07-14T13:45:06.925Z,63.53
2018-07-14T13:46:06.950Z,61.82
2018-07-14T13:47:21.898Z,62.88
2018-07-14T13:48:07.270Z,63.07
2018-07-14T13:49:07.291Z,61.85
2018-07-14T13:50:07.058Z,60.68
2018-07-14T13:51:07.090Z,61.07
2018-07-14T13:52:07.113Z,60.58